Time,TemperatureF,DewpointF,PressureIn,WindDirection,WindDirectionDegrees,WindSpeedMPH,WindSpeedGustMPH,Humidity,HourlyPrecipIn,Conditions,Clouds,dailyrainin,SoftwareType,DateUTC
2013-07-11 00:01:00,69.7,68.8,29.95,West,272,2.0,4.0,97,0.00,,,0.00,Wunderground v.1.15,2013-07-11 04:01:00,
2013-07-11 00:02:00,69.6,68.7,29.95,West,265,4.0,4.0,97,0.00,,,0.00,Wunderground v.1.15,2013-07-11 04:02:00,
2013-07-11 00:03:00,69.6,68.7,29.95,West,281,3.0,4.0,97,0.00,,,0.00,Wunderground v.1.15,2013-07-11 04:03:00,
2013-07-11 00:05:00,69.6,68.7,29.95,NW,316,2.0,5.0,97,0.00,,,0.00,Wunderground v.1.15,2013-07-11 04:05:00,
2013-07-11 00:06:00,69.6,68.7,29.95,West,276,3.0,3.0,97,0.00,,,0.00,Wunderground v.1.15,2013-07-11 04:06:00,
2013-07-11 00:11:00,69.5,68.6,29.95,West,260,2.0,6.0,97,0.00,,,0.00,Wunderground v.1.15,2013-07-11 04:11:00,
2013-07-11 00:16:00,69.4,68.2,29.94,WNW,283,1.0,3.0,96,0.00,,,0.00,Wunderground v.1.15,2013-07-11 04:16:00,
2013-07-11 00:21:00,69.4,68.2,29.95,West,271,1.0,3.0,96,0.00,,,0.00,Wunderground v.1.15,2013-07-11 04:21:00,
2013-07-11 00:26:00,69.4,68.5,29.94,WSW,252,0.0,2.0,97,0.00,,,0.00,Wunderground v.1.15,2013-07-11 04:26:00,
2013-07-11 00:31:00,69.4,68.2,29.94,SW,235,1.0,2.0,96,0.00,,,0.00,Wunderground v.1.15,2013-07-11 04:31:00,
2013-07-11 00:37:00,69.4,68.2,29.94,WSW,254,0.0,0.0,96,0.00,,,0.00,Wunderground v.1.15,2013-07-11 04:37:00,
2013-07-11 00:42:00,69.4,68.2,29.94,SW,219,0.0,2.0,96,0.00,,,0.00,Wunderground v.1.15,2013-07-11 04:42:00,
2013-07-11 00:47:00,69.3,68.4,29.94,SE,133,0.0,1.0,97,0.00,,,0.00,Wunderground v.1.15,2013-07-11 04:47:00,
2013-07-11 00:52:00,69.2,68.0,29.93,WSW,248,0.0,1.0,96,0.00,,,0.01,Wunderground v.1.15,2013-07-11 04:52:00,
2013-07-11 00:57:00,69.2,68.0,29.93,SSW,207,0.0,0.0,96,0.00,,,0.01,Wunderground v.1.15,2013-07-11 04:57:00,
2013-07-11 01:02:00,69.2,68.0,29.93,ESE,117,0.0,2.0,96,0.00,,,0.01,Wunderground v.1.15,2013-07-11 05:02:00,
2013-07-11 01:07:00,69.1,67.9,29.92,SSE,150,2.0,2.0,96,0.00,,,0.02,Wunderground v.1.15,2013-07-11 05:07:00,
2013-07-11 01:12:00,69.0,67.8,29.93,SE,135,0.0,3.0,96,0.00,,,0.02,Wunderground v.1.15,2013-07-11 05:12:00,
2013-07-11 01:17:00,69.0,68.1,29.93,ESE,120,1.0,2.0,97,0.05,,,0.02,Wunderground v.1.15,2013-07-11 05:17:00,
2013-07-11 01:22:00,69.0,68.1,29.93,SE,134,1.0,2.0,97,0.05,,,0.03,Wunderground v.1.15,2013-07-11 05:22:00,
2013-07-11 01:27:00,69.0,68.1,29.93,ESE,119,0.0,1.0,97,0.05,,,0.03,Wunderground v.1.15,2013-07-11 05:27:00,
2013-07-11 01:33:00,68.9,68.0,29.93,ESE,119,0.0,1.0,97,0.06,,,0.04,Wunderground v.1.15,2013-07-11 05:33:00,
2013-07-11 01:38:00,69.0,68.4,29.93,ESE,118,0.0,0.0,98,0.09,,,0.05,Wunderground v.1.15,2013-07-11 05:38:00,
2013-07-11 01:43:00,69.0,68.4,29.93,ESE,118,0.0,0.0,98,0.07,,,0.05,Wunderground v.1.15,2013-07-11 05:43:00,
2013-07-11 01:48:00,68.9,68.3,29.94,SW,226,0.0,0.0,98,0.06,,,0.06,Wunderground v.1.15,2013-07-11 05:48:00,
2013-07-11 01:53:00,68.9,68.3,29.94,SW,224,0.0,0.0,98,0.06,,,0.06,Wunderground v.1.15,2013-07-11 05:53:00,
2013-07-11 01:58:00,69.0,68.4,29.94,South,186,1.0,1.0,98,0.05,,,0.07,Wunderground v.1.15,2013-07-11 05:58:00,
2013-07-11 02:03:00,68.8,68.2,29.94,SE,144,2.0,2.0,98,0.05,,,0.07,Wunderground v.1.15,2013-07-11 06:03:00,
2013-07-11 02:08:00,68.8,68.2,29.94,SE,141,2.0,2.0,98,0.05,,,0.07,Wunderground v.1.15,2013-07-11 06:08:00,
2013-07-11 02:13:00,68.8,68.2,29.93,SE,146,3.0,4.0,98,0.05,,,0.08,Wunderground v.1.15,2013-07-11 06:13:00,
2013-07-11 02:18:00,68.8,67.9,29.93,SE,141,6.0,7.0,97,0.05,,,0.08,Wunderground v.1.15,2013-07-11 06:18:00,
2013-07-11 02:23:00,68.8,68.2,29.92,SE,131,5.0,7.0,98,0.04,,,0.08,Wunderground v.1.15,2013-07-11 06:23:00,
2013-07-11 02:28:00,68.8,68.2,29.93,SE,138,4.0,5.0,98,0.00,,,0.08,Wunderground v.1.15,2013-07-11 06:28:00,
2013-07-11 02:33:00,68.8,68.2,29.93,SE,139,2.0,5.0,98,0.00,,,0.09,Wunderground v.1.15,2013-07-11 06:33:00,
2013-07-11 02:38:00,68.7,68.1,29.92,SE,138,4.0,6.0,98,0.00,,,0.09,Wunderground v.1.15,2013-07-11 06:38:00,
2013-07-11 02:43:00,68.7,68.1,29.92,SE,136,3.0,6.0,98,0.00,,,0.09,Wunderground v.1.15,2013-07-11 06:43:00,
2013-07-11 02:48:00,68.7,68.1,29.92,SE,141,5.0,6.0,98,0.00,,,0.09,Wunderground v.1.15,2013-07-11 06:48:00,
2013-07-11 02:53:00,68.7,68.1,29.92,SE,138,4.0,8.0,98,0.00,,,0.09,Wunderground v.1.15,2013-07-11 06:53:00,
2013-07-11 02:58:00,68.7,68.1,29.92,SSE,161,4.0,7.0,98,0.00,,,0.09,Wunderground v.1.15,2013-07-11 06:58:00,
2013-07-11 03:03:00,68.7,68.1,29.92,SE,127,0.0,7.0,98,0.00,,,0.09,Wunderground v.1.15,2013-07-11 07:03:00,
2013-07-11 03:08:00,68.7,68.1,29.92,SE,125,1.0,4.0,98,0.00,,,0.09,Wunderground v.1.15,2013-07-11 07:08:00,
2013-07-11 03:14:00,68.7,68.1,29.91,ESE,122,5.0,6.0,98,0.00,,,0.09,Wunderground v.1.15,2013-07-11 07:14:00,
2013-07-11 03:19:00,68.8,68.2,29.91,East,82,1.0,3.0,98,0.00,,,0.09,Wunderground v.1.15,2013-07-11 07:19:00,
2013-07-11 03:24:00,68.8,68.2,29.91,SE,124,3.0,3.0,98,0.00,,,0.09,Wunderground v.1.15,2013-07-11 07:24:00,
2013-07-11 03:29:00,68.8,68.2,29.91,SE,129,2.0,5.0,98,0.00,,,0.09,Wunderground v.1.15,2013-07-11 07:29:00,
2013-07-11 03:34:00,68.8,68.2,29.91,ENE,77,2.0,5.0,98,0.00,,,0.09,Wunderground v.1.15,2013-07-11 07:34:00,
2013-07-11 03:39:00,68.8,68.2,29.91,ESE,115,0.0,3.0,98,0.00,,,0.09,Wunderground v.1.15,2013-07-11 07:39:00,
2013-07-11 03:44:00,68.8,68.2,29.91,SSW,193,0.0,3.0,98,0.00,,,0.09,Wunderground v.1.15,2013-07-11 07:44:00,
2013-07-11 03:49:00,68.8,68.5,29.91,NNE,30,1.0,2.0,99,0.00,,,0.09,Wunderground v.1.15,2013-07-11 07:49:00,
2013-07-11 03:54:00,68.9,68.6,29.91,ESE,120,0.0,2.0,99,0.00,,,0.09,Wunderground v.1.15,2013-07-11 07:54:00,
2013-07-11 03:59:00,68.8,68.2,29.91,ESE,108,2.0,3.0,98,0.00,,,0.09,Wunderground v.1.15,2013-07-11 07:59:00,
2013-07-11 04:04:00,68.8,68.2,29.91,East,100,1.0,3.0,98,0.00,,,0.09,Wunderground v.1.15,2013-07-11 08:04:00,
2013-07-11 04:09:00,68.7,68.1,29.91,ENE,71,1.0,2.0,98,0.00,,,0.09,Wunderground v.1.15,2013-07-11 08:09:00,
2013-07-11 04:14:00,68.7,68.1,29.91,East,98,2.0,2.0,98,0.00,,,0.09,Wunderground v.1.15,2013-07-11 08:14:00,
2013-07-11 04:19:00,68.7,68.4,29.91,East,96,0.0,2.0,99,0.00,,,0.09,Wunderground v.1.15,2013-07-11 08:19:00,
2013-07-11 04:24:00,68.7,68.4,29.91,ESE,104,0.0,2.0,99,0.00,,,0.09,Wunderground v.1.15,2013-07-11 08:24:00,
2013-07-11 04:29:00,68.6,68.3,29.91,ESE,115,0.0,1.0,99,0.00,,,0.09,Wunderground v.1.15,2013-07-11 08:29:00,
2013-07-11 04:34:00,68.7,68.4,29.91,SE,133,0.0,1.0,99,0.00,,,0.09,Wunderground v.1.15,2013-07-11 08:34:00,
2013-07-11 04:39:00,68.7,68.4,29.90,ESE,122,0.0,1.0,99,0.00,,,0.09,Wunderground v.1.15,2013-07-11 08:39:00,
2013-07-11 04:44:00,68.7,68.4,29.90,SE,129,0.0,1.0,99,0.00,,,0.09,Wunderground v.1.15,2013-07-11 08:44:00,
2013-07-11 04:49:00,68.7,68.4,29.90,SE,133,2.0,2.0,99,0.00,,,0.09,Wunderground v.1.15,2013-07-11 08:49:00,
2013-07-11 04:54:00,68.7,68.4,29.90,SE,146,0.0,2.0,99,0.00,,,0.09,Wunderground v.1.15,2013-07-11 08:54:00,
2013-07-11 04:59:00,68.7,68.4,29.90,SE,146,0.0,1.0,99,0.00,,,0.09,Wunderground v.1.15,2013-07-11 08:59:00,
2013-07-11 05:04:00,68.7,68.4,29.90,SSE,147,0.0,1.0,99,0.00,,,0.09,Wunderground v.1.15,2013-07-11 09:04:00,
2013-07-11 05:09:00,68.6,68.3,29.90,SSE,152,0.0,2.0,99,0.00,,,0.09,Wunderground v.1.15,2013-07-11 09:09:00,
2013-07-11 05:14:00,68.7,68.4,29.90,South,175,0.0,2.0,99,0.00,,,0.09,Wunderground v.1.15,2013-07-11 09:14:00,
2013-07-11 05:19:00,68.7,68.4,29.90,SSW,202,0.0,1.0,99,0.00,,,0.09,Wunderground v.1.15,2013-07-11 09:19:00,
2013-07-11 05:24:00,68.8,68.5,29.91,WSW,257,0.0,1.0,99,0.00,,,0.09,Wunderground v.1.15,2013-07-11 09:24:00,
2013-07-11 05:29:00,68.7,68.4,29.90,South,188,1.0,1.0,99,0.00,,,0.09,Wunderground v.1.15,2013-07-11 09:29:00,
2013-07-11 05:34:00,68.7,68.4,29.90,South,188,0.0,1.0,99,0.00,,,0.09,Wunderground v.1.15,2013-07-11 09:34:00,
2013-07-11 05:39:00,68.6,68.3,29.90,SSE,150,1.0,1.0,99,0.00,,,0.09,Wunderground v.1.15,2013-07-11 09:39:00,
2013-07-11 05:44:00,68.6,68.3,29.90,SSE,153,0.0,2.0,99,0.00,,,0.09,Wunderground v.1.15,2013-07-11 09:44:00,
2013-07-11 05:49:00,68.6,68.3,29.90,WSW,244,0.0,2.0,99,0.00,,,0.09,Wunderground v.1.15,2013-07-11 09:49:00,
2013-07-11 05:54:00,68.7,68.4,29.91,WSW,243,1.0,2.0,99,0.00,,,0.09,Wunderground v.1.15,2013-07-11 09:54:00,
2013-07-11 05:59:00,68.7,68.4,29.91,SW,226,0.0,1.0,99,0.00,,,0.09,Wunderground v.1.15,2013-07-11 09:59:00,
2013-07-11 06:04:00,68.8,68.2,29.91,SW,214,0.0,1.0,98,0.00,,,0.09,Wunderground v.1.15,2013-07-11 10:04:00,
2013-07-11 06:09:00,68.8,68.2,29.91,SW,214,0.0,1.0,98,0.00,,,0.09,Wunderground v.1.15,2013-07-11 10:09:00,
2013-07-11 06:14:00,68.8,68.2,29.91,West,264,1.0,1.0,98,0.00,,,0.09,Wunderground v.1.15,2013-07-11 10:14:00,
2013-07-11 06:19:00,68.8,68.2,29.91,West,264,0.0,1.0,98,0.00,,,0.09,Wunderground v.1.15,2013-07-11 10:19:00,
2013-07-11 06:24:00,68.8,68.2,29.91,West,264,0.0,1.0,98,0.00,,,0.09,Wunderground v.1.15,2013-07-11 10:24:00,
2013-07-11 06:29:00,68.7,68.1,29.91,WSW,245,0.0,1.0,98,0.00,,,0.09,Wunderground v.1.15,2013-07-11 10:29:00,
2013-07-11 06:34:00,68.7,68.1,29.91,WSW,245,0.0,1.0,98,0.00,,,0.09,Wunderground v.1.15,2013-07-11 10:34:00,
2013-07-11 06:39:00,68.7,68.1,29.91,WSW,245,0.0,1.0,98,0.00,,,0.09,Wunderground v.1.15,2013-07-11 10:39:00,
2013-07-11 06:44:00,68.7,68.1,29.91,SW,221,0.0,1.0,98,0.00,,,0.09,Wunderground v.1.15,2013-07-11 10:44:00,
2013-07-11 06:49:00,68.7,68.1,29.91,SE,124,1.0,1.0,98,0.00,,,0.09,Wunderground v.1.15,2013-07-11 10:49:00,
2013-07-11 06:54:00,68.7,68.1,29.91,SE,124,0.0,1.0,98,0.00,,,0.09,Wunderground v.1.15,2013-07-11 10:54:00,
2013-07-11 06:59:00,68.8,68.5,29.92,WSW,257,0.0,0.0,99,0.00,,,0.09,Wunderground v.1.15,2013-07-11 10:59:00,
2013-07-11 07:04:00,68.8,68.5,29.92,SSW,206,0.0,1.0,99,0.00,,,0.09,Wunderground v.1.15,2013-07-11 11:04:00,
2013-07-11 07:09:00,68.7,68.4,29.92,SSW,195,1.0,1.0,99,0.00,,,0.09,Wunderground v.1.15,2013-07-11 11:09:00,
2013-07-11 07:14:00,68.7,68.4,29.92,SSE,162,0.0,2.0,99,0.00,,,0.09,Wunderground v.1.15,2013-07-11 11:14:00,
2013-07-11 07:19:00,68.7,68.4,29.92,South,191,0.0,1.0,99,0.00,,,0.09,Wunderground v.1.15,2013-07-11 11:19:00,
2013-07-11 07:24:00,68.6,68.3,29.92,SE,146,2.0,2.0,99,0.00,,,0.09,Wunderground v.1.15,2013-07-11 11:24:00,
2013-07-11 07:29:00,68.6,68.3,29.92,SE,141,0.0,1.0,99,0.00,,,0.09,Wunderground v.1.15,2013-07-11 11:29:00,
2013-07-11 07:34:00,68.7,68.4,29.92,SE,141,0.0,1.0,99,0.00,,,0.09,Wunderground v.1.15,2013-07-11 11:34:00,
2013-07-11 07:39:00,68.7,68.4,29.92,West,269,0.0,1.0,99,0.00,,,0.09,Wunderground v.1.15,2013-07-11 11:39:00,
2013-07-11 07:44:00,68.7,68.4,29.93,NW,320,1.0,2.0,99,0.00,,,0.09,Wunderground v.1.15,2013-07-11 11:44:00,
2013-07-11 07:49:00,68.8,68.5,29.93,North,352,0.0,1.0,99,0.00,,,0.09,Wunderground v.1.15,2013-07-11 11:49:00,
2013-07-11 07:54:00,68.8,68.5,29.93,NNW,338,1.0,3.0,99,0.00,,,0.09,Wunderground v.1.15,2013-07-11 11:54:00,
2013-07-11 07:59:00,68.7,68.4,29.93,NNW,327,2.0,3.0,99,0.00,,,0.09,Wunderground v.1.15,2013-07-11 11:59:00,
2013-07-11 08:04:00,68.5,68.2,29.93,NNW,340,1.0,3.0,99,0.00,,,0.09,Wunderground v.1.15,2013-07-11 12:04:00,
2013-07-11 08:09:00,68.6,68.3,29.93,North,359,0.0,2.0,99,0.00,,,0.09,Wunderground v.1.15,2013-07-11 12:09:00,
2013-07-11 08:14:00,68.6,68.3,29.93,NNW,342,1.0,3.0,99,0.00,,,0.09,Wunderground v.1.15,2013-07-11 12:14:00,
2013-07-11 08:19:00,68.6,68.3,29.93,NNW,340,2.0,4.0,99,0.00,,,0.09,Wunderground v.1.15,2013-07-11 12:19:00,
2013-07-11 08:24:00,68.7,68.4,29.93,NNW,330,3.0,4.0,99,0.00,,,0.09,Wunderground v.1.15,2013-07-11 12:24:00,
2013-07-11 08:29:00,68.6,68.3,29.93,NNW,331,3.0,5.0,99,0.00,,,0.09,Wunderground v.1.15,2013-07-11 12:29:00,
2013-07-11 08:34:00,68.6,68.3,29.93,NNW,333,3.0,5.0,99,0.00,,,0.09,Wunderground v.1.15,2013-07-11 12:34:00,
2013-07-11 08:39:00,68.5,68.2,29.93,NNW,332,3.0,4.0,99,0.00,,,0.09,Wunderground v.1.15,2013-07-11 12:39:00,
2013-07-11 08:44:00,68.6,68.3,29.94,NNW,335,1.0,4.0,99,0.00,,,0.09,Wunderground v.1.15,2013-07-11 12:44:00,
2013-07-11 08:49:00,68.6,68.3,29.94,North,349,0.0,3.0,99,0.00,,,0.09,Wunderground v.1.15,2013-07-11 12:49:00,
2013-07-11 08:54:00,68.8,68.8,29.94,NNW,333,1.0,3.0,100,0.00,,,0.09,Wunderground v.1.15,2013-07-11 12:54:00,
2013-07-11 08:59:00,68.8,68.5,29.94,NNW,347,2.0,3.0,99,0.00,,,0.09,Wunderground v.1.15,2013-07-11 12:59:00,
2013-07-11 09:04:00,68.9,68.9,29.94,North,7,0.0,3.0,100,0.00,,,0.09,Wunderground v.1.15,2013-07-11 13:04:00,
2013-07-11 09:09:00,69.2,69.2,29.94,North,6,0.0,1.0,100,0.00,,,0.09,Wunderground v.1.15,2013-07-11 13:09:00,
2013-07-11 09:14:00,69.2,69.2,29.94,ENE,75,1.0,1.0,100,0.00,,,0.09,Wunderground v.1.15,2013-07-11 13:14:00,
2013-07-11 09:19:00,69.2,68.9,29.94,NNW,340,1.0,2.0,99,0.00,,,0.09,Wunderground v.1.15,2013-07-11 13:19:00,
2013-07-11 09:24:00,69.2,68.9,29.94,NNE,12,0.0,2.0,99,0.00,,,0.09,Wunderground v.1.15,2013-07-11 13:24:00,
2013-07-11 09:29:00,69.6,69.6,29.94,North,10,0.0,1.0,100,0.00,,,0.09,Wunderground v.1.15,2013-07-11 13:29:00,
2013-07-11 09:35:00,69.6,69.3,29.94,NNW,333,0.0,1.0,99,0.00,,,0.09,Wunderground v.1.15,2013-07-11 13:35:00,
2013-07-11 09:40:00,69.7,69.4,29.94,NNW,347,0.0,1.0,99,0.00,,,0.09,Wunderground v.1.15,2013-07-11 13:40:00,
2013-07-11 09:45:00,69.9,69.6,29.94,NNW,348,0.0,1.0,99,0.00,,,0.09,Wunderground v.1.15,2013-07-11 13:45:00,
2013-07-11 09:51:00,70.2,69.9,29.94,East,79,0.0,0.0,99,0.00,,,0.09,Wunderground v.1.15,2013-07-11 13:51:00,
2013-07-11 09:56:00,70.3,70.0,29.94,North,352,0.0,0.0,99,0.00,,,0.09,Wunderground v.1.15,2013-07-11 13:56:00,
2013-07-11 10:01:00,70.3,70.0,29.94,SE,129,1.0,1.0,99,0.00,,,0.09,Wunderground v.1.15,2013-07-11 14:01:00,
2013-07-11 10:06:00,70.2,69.9,29.94,ESE,107,1.0,1.0,99,0.00,,,0.09,Wunderground v.1.15,2013-07-11 14:06:00,
2013-07-11 10:11:00,70.3,70.0,29.94,South,169,1.0,2.0,99,0.00,,,0.09,Wunderground v.1.15,2013-07-11 14:11:00,
2013-07-11 10:16:00,70.3,69.7,29.94,SSE,152,1.0,3.0,98,0.00,,,0.09,Wunderground v.1.15,2013-07-11 14:16:00,
2013-07-11 10:21:00,70.4,69.8,29.94,SE,129,1.0,2.0,98,0.00,,,0.09,Wunderground v.1.15,2013-07-11 14:21:00,
2013-07-11 10:27:00,70.6,70.0,29.94,South,177,1.0,1.0,98,0.00,,,0.09,Wunderground v.1.15,2013-07-11 14:27:00,
2013-07-11 10:32:00,70.7,70.1,29.94,SSE,165,1.0,3.0,98,0.00,,,0.09,Wunderground v.1.15,2013-07-11 14:32:00,
2013-07-11 10:37:00,71.0,70.1,29.94,South,174,1.0,1.0,97,0.00,,,0.09,Wunderground v.1.15,2013-07-11 14:37:00,
2013-07-11 10:42:00,71.3,70.1,29.94,SSW,192,2.0,2.0,96,0.00,,,0.09,Wunderground v.1.15,2013-07-11 14:42:00,
2013-07-11 10:48:00,71.4,70.2,29.94,WSW,238,2.0,3.0,96,0.00,,,0.09,Wunderground v.1.15,2013-07-11 14:48:00,
2013-07-11 10:53:00,71.6,70.4,29.94,SSW,213,0.0,3.0,96,0.00,,,0.09,Wunderground v.1.15,2013-07-11 14:53:00,
2013-07-11 10:58:00,71.9,70.4,29.94,SSW,197,0.0,1.0,95,0.00,,,0.09,Wunderground v.1.15,2013-07-11 14:58:00,
2013-07-11 11:03:00,72.2,70.7,29.95,SSE,160,0.0,1.0,95,0.00,,,0.09,Wunderground v.1.15,2013-07-11 15:03:00,
2013-07-11 11:08:00,72.5,71.0,29.95,SSE,160,0.0,2.0,95,0.00,,,0.09,Wunderground v.1.15,2013-07-11 15:08:00,
2013-07-11 11:13:00,72.5,70.7,29.95,West,278,1.0,2.0,94,0.00,,,0.09,Wunderground v.1.15,2013-07-11 15:13:00,
2013-07-11 11:18:00,72.3,70.5,29.95,WSW,245,0.0,3.0,94,0.00,,,0.09,Wunderground v.1.15,2013-07-11 15:18:00,
2013-07-11 11:23:00,72.3,70.5,29.95,West,273,0.0,3.0,94,0.00,,,0.09,Wunderground v.1.15,2013-07-11 15:23:00,
2013-07-11 11:28:00,72.4,70.6,29.95,WNW,297,1.0,2.0,94,0.00,,,0.09,Wunderground v.1.15,2013-07-11 15:28:00,
2013-07-11 11:33:00,72.5,70.7,29.95,West,271,2.0,3.0,94,0.00,,,0.09,Wunderground v.1.15,2013-07-11 15:33:00,
2013-07-11 11:38:00,72.6,71.1,29.95,WNW,299,2.0,2.0,95,0.00,,,0.09,Wunderground v.1.15,2013-07-11 15:38:00,
2013-07-11 11:43:00,72.6,71.1,29.95,West,264,2.0,3.0,95,0.00,,,0.09,Wunderground v.1.15,2013-07-11 15:43:00,
2013-07-11 11:48:00,72.7,70.9,29.95,WSW,255,1.0,3.0,94,0.00,,,0.09,Wunderground v.1.15,2013-07-11 15:48:00,
2013-07-11 11:53:00,73.1,71.0,29.94,WSW,250,1.0,3.0,93,0.00,,,0.09,Wunderground v.1.15,2013-07-11 15:53:00,
2013-07-11 11:58:00,73.4,70.9,29.94,West,270,1.0,2.0,92,0.00,,,0.09,Wunderground v.1.15,2013-07-11 15:58:00,
2013-07-11 12:04:00,73.7,71.2,29.94,West,266,1.0,2.0,92,0.00,,,0.09,Wunderground v.1.15,2013-07-11 16:04:00,
2013-07-11 12:09:00,74.2,71.7,29.94,WSW,240,0.0,1.0,92,0.00,,,0.09,Wunderground v.1.15,2013-07-11 16:09:00,
2013-07-11 12:14:00,75.2,72.1,29.94,SW,236,0.0,1.0,90,0.00,,,0.09,Wunderground v.1.15,2013-07-11 16:14:00,
2013-07-11 12:19:00,75.9,72.1,29.94,SE,125,0.0,3.0,88,0.00,,,0.09,Wunderground v.1.15,2013-07-11 16:19:00,
2013-07-11 12:24:00,76.5,72.3,29.94,West,259,0.0,3.0,87,0.00,,,0.09,Wunderground v.1.15,2013-07-11 16:24:00,
2013-07-11 12:29:00,76.4,71.2,29.94,SSE,165,2.0,3.0,84,0.00,,,0.09,Wunderground v.1.15,2013-07-11 16:29:00,
2013-07-11 12:35:00,76.4,71.6,29.94,SW,222,0.0,3.0,85,0.00,,,0.09,Wunderground v.1.15,2013-07-11 16:35:00,
2013-07-11 12:40:00,76.9,71.7,29.93,SW,234,0.0,1.0,84,0.00,,,0.09,Wunderground v.1.15,2013-07-11 16:40:00,
2013-07-11 12:45:00,77.4,71.8,29.93,SW,214,0.0,2.0,83,0.00,,,0.09,Wunderground v.1.15,2013-07-11 16:45:00,
2013-07-11 12:50:00,77.5,71.6,29.93,West,261,1.0,1.0,82,0.00,,,0.09,Wunderground v.1.15,2013-07-11 16:50:00,
2013-07-11 12:56:00,77.4,71.5,29.93,SW,222,1.0,3.0,82,0.00,,,0.09,Wunderground v.1.15,2013-07-11 16:56:00,
2013-07-11 13:01:00,77.3,71.0,29.93,SW,224,0.0,2.0,81,0.00,,,0.09,Wunderground v.1.15,2013-07-11 17:01:00,
2013-07-11 13:06:00,77.5,71.9,29.93,NW,309,1.0,2.0,83,0.00,,,0.09,Wunderground v.1.15,2013-07-11 17:06:00,
2013-07-11 13:11:00,77.5,71.6,29.93,SW,226,0.0,2.0,82,0.00,,,0.09,Wunderground v.1.15,2013-07-11 17:11:00,
2013-07-11 13:16:00,77.4,72.2,29.92,NW,325,3.0,3.0,84,0.00,,,0.09,Wunderground v.1.15,2013-07-11 17:16:00,
2013-07-11 13:22:00,77.3,72.1,29.92,NNW,332,2.0,7.0,84,0.00,,,0.09,Wunderground v.1.15,2013-07-11 17:22:00,
2013-07-11 13:27:00,77.2,71.6,29.92,NE,46,0.0,2.0,83,0.00,,,0.09,Wunderground v.1.15,2013-07-11 17:27:00,
2013-07-11 13:32:00,77.9,72.0,29.92,SE,134,0.0,2.0,82,0.00,,,0.09,Wunderground v.1.15,2013-07-11 17:32:00,
2013-07-11 13:37:00,78.5,72.5,29.92,NNW,332,1.0,1.0,82,0.00,,,0.09,Wunderground v.1.15,2013-07-11 17:37:00,
2013-07-11 13:42:00,78.4,72.4,29.92,North,8,3.0,3.0,82,0.00,,,0.09,Wunderground v.1.15,2013-07-11 17:42:00,
2013-07-11 13:48:00,78.5,72.5,29.91,NW,323,1.0,2.0,82,0.00,,,0.09,Wunderground v.1.15,2013-07-11 17:48:00,
2013-07-11 13:53:00,78.6,72.3,29.91,WNW,295,1.0,3.0,81,0.00,,,0.09,Wunderground v.1.15,2013-07-11 17:53:00,
2013-07-11 13:58:00,78.6,72.3,29.91,NW,311,3.0,3.0,81,0.00,,,0.09,Wunderground v.1.15,2013-07-11 17:58:00,
2013-07-11 14:03:00,78.7,72.4,29.91,NW,307,2.0,3.0,81,0.00,,,0.09,Wunderground v.1.15,2013-07-11 18:03:00,
2013-07-11 14:08:00,78.8,72.5,29.91,WNW,298,1.0,2.0,81,0.00,,,0.09,Wunderground v.1.15,2013-07-11 18:08:00,
2013-07-11 14:13:00,79.1,72.4,29.91,WNW,299,2.0,3.0,80,0.00,,,0.09,Wunderground v.1.15,2013-07-11 18:13:00,
2013-07-11 14:18:00,79.6,72.9,29.91,NW,316,2.0,2.0,80,0.00,,,0.09,Wunderground v.1.15,2013-07-11 18:18:00,
2013-07-11 14:23:00,80.3,73.2,29.91,NW,320,2.0,3.0,79,0.00,,,0.09,Wunderground v.1.15,2013-07-11 18:23:00,
2013-07-11 14:28:00,80.7,72.8,29.90,NW,319,1.0,3.0,77,0.00,,,0.09,Wunderground v.1.15,2013-07-11 18:28:00,
2013-07-11 14:34:00,81.3,73.0,29.90,NW,319,1.0,5.0,76,0.00,,,0.09,Wunderground v.1.15,2013-07-11 18:34:00,
2013-07-11 14:39:00,81.4,72.7,29.90,WNW,282,0.0,2.0,75,0.00,,,0.09,Wunderground v.1.15,2013-07-11 18:39:00,
2013-07-11 14:44:00,81.0,71.9,29.90,West,267,1.0,3.0,74,0.00,,,0.09,Wunderground v.1.15,2013-07-11 18:44:00,
2013-07-11 14:49:00,80.9,72.2,29.90,West,262,0.0,1.0,75,0.00,,,0.09,Wunderground v.1.15,2013-07-11 18:49:00,
2013-07-11 14:55:00,81.6,72.5,29.89,SE,146,0.0,3.0,74,0.00,,,0.09,Wunderground v.1.15,2013-07-11 18:55:00,
2013-07-11 15:00:00,82.4,72.5,29.89,North,357,2.0,2.0,72,0.00,,,0.09,Wunderground v.1.15,2013-07-11 19:00:00,
2013-07-11 15:05:00,82.4,72.9,29.89,West,262,0.0,2.0,73,0.00,,,0.09,Wunderground v.1.15,2013-07-11 19:05:00,
2013-07-11 15:10:00,82.7,72.7,29.89,ESE,120,0.0,2.0,72,0.00,,,0.09,Wunderground v.1.15,2013-07-11 19:10:00,
2013-07-11 15:16:00,82.5,72.6,29.89,SE,129,2.0,3.0,72,0.00,,,0.09,Wunderground v.1.15,2013-07-11 19:16:00,
2013-07-11 15:21:00,82.0,72.5,29.88,SE,132,1.0,5.0,73,0.00,,,0.09,Wunderground v.1.15,2013-07-11 19:21:00,
2013-07-11 15:26:00,82.2,72.3,29.88,SE,126,2.0,2.0,72,0.00,,,0.09,Wunderground v.1.15,2013-07-11 19:26:00,
2013-07-11 15:32:00,82.4,72.0,29.88,SW,224,2.0,6.0,71,0.00,,,0.09,Wunderground v.1.15,2013-07-11 19:32:00,
2013-07-11 15:37:00,82.8,72.4,29.88,South,186,2.0,3.0,71,0.00,,,0.09,Wunderground v.1.15,2013-07-11 19:37:00,
2013-07-11 15:42:00,83.0,72.6,29.88,West,271,2.0,3.0,71,0.00,,,0.09,Wunderground v.1.15,2013-07-11 19:42:00,
2013-07-11 15:47:00,83.0,72.2,29.88,SE,137,3.0,3.0,70,0.00,,,0.09,Wunderground v.1.15,2013-07-11 19:47:00,
2013-07-11 15:52:00,83.1,72.7,29.88,SE,130,2.0,4.0,71,0.00,,,0.09,Wunderground v.1.15,2013-07-11 19:52:00,
2013-07-11 15:57:00,82.5,72.1,29.88,ESE,117,0.0,2.0,71,0.00,,,0.09,Wunderground v.1.15,2013-07-11 19:57:00,
2013-07-11 16:02:00,82.6,71.8,29.88,SSW,198,1.0,2.0,70,0.00,,,0.09,Wunderground v.1.15,2013-07-11 20:02:00,
2013-07-11 16:07:00,82.9,71.7,29.87,SSW,200,1.0,3.0,69,0.00,,,0.09,Wunderground v.1.15,2013-07-11 20:07:00,
2013-07-11 16:12:00,83.3,71.6,29.87,South,191,1.0,3.0,68,0.00,,,0.09,Wunderground v.1.15,2013-07-11 20:12:00,
2013-07-11 16:18:00,84.0,71.9,29.87,SW,222,2.0,2.0,67,0.00,,,0.09,Wunderground v.1.15,2013-07-11 20:18:00,
2013-07-11 16:23:00,84.2,72.0,29.87,SSW,202,1.0,3.0,67,0.00,,,0.09,Wunderground v.1.15,2013-07-11 20:23:00,
2013-07-11 16:28:00,84.4,72.2,29.86,SSW,209,0.0,2.0,67,0.00,,,0.09,Wunderground v.1.15,2013-07-11 20:28:00,
2013-07-11 16:33:00,84.6,72.0,29.86,SE,130,1.0,5.0,66,0.00,,,0.09,Wunderground v.1.15,2013-07-11 20:33:00,
2013-07-11 16:38:00,84.8,71.7,29.86,South,182,2.0,3.0,65,0.00,,,0.09,Wunderground v.1.15,2013-07-11 20:38:00,
2013-07-11 16:43:00,84.6,72.0,29.86,SW,215,1.0,3.0,66,0.00,,,0.09,Wunderground v.1.15,2013-07-11 20:43:00,
2013-07-11 16:48:00,84.7,72.1,29.86,SSE,158,2.0,3.0,66,0.00,,,0.09,Wunderground v.1.15,2013-07-11 20:48:00,
2013-07-11 16:53:00,85.0,71.9,29.86,NW,321,0.0,3.0,65,0.00,,,0.09,Wunderground v.1.15,2013-07-11 20:53:00,
2013-07-11 16:58:00,85.1,72.0,29.85,SSE,147,0.0,2.0,65,0.00,,,0.09,Wunderground v.1.15,2013-07-11 20:58:00,
2013-07-11 17:04:00,84.6,72.0,29.85,North,8,0.0,2.0,66,0.00,,,0.09,Wunderground v.1.15,2013-07-11 21:04:00,
2013-07-11 17:09:00,84.6,72.4,29.85,ENE,60,0.0,1.0,67,0.00,,,0.09,Wunderground v.1.15,2013-07-11 21:09:00,
2013-07-11 17:15:00,84.4,72.7,29.85,NW,323,0.0,2.0,68,0.00,,,0.09,Wunderground v.1.15,2013-07-11 21:15:00,
2013-07-11 17:20:00,84.0,72.7,29.85,West,265,0.0,2.0,69,0.00,,,0.09,Wunderground v.1.15,2013-07-11 21:20:00,
2013-07-11 17:25:00,83.8,73.0,29.85,West,274,1.0,2.0,70,0.00,,,0.09,Wunderground v.1.15,2013-07-11 21:25:00,
2013-07-11 17:30:00,83.5,72.7,29.85,West,268,2.0,3.0,70,0.00,,,0.09,Wunderground v.1.15,2013-07-11 21:30:00,
2013-07-11 17:35:00,83.2,72.8,29.85,WSW,255,2.0,3.0,71,0.00,,,0.09,Wunderground v.1.15,2013-07-11 21:35:00,
2013-07-11 17:40:00,83.1,72.3,29.85,WNW,283,1.0,2.0,70,0.00,,,0.09,Wunderground v.1.15,2013-07-11 21:40:00,
2013-07-11 17:45:00,82.9,72.9,29.85,West,267,3.0,5.0,72,0.00,,,0.09,Wunderground v.1.15,2013-07-11 21:45:00,
2013-07-11 17:51:00,82.6,72.2,29.85,WNW,295,2.0,3.0,71,0.00,,,0.09,Wunderground v.1.15,2013-07-11 21:51:00,
2013-07-11 17:56:00,82.5,72.1,29.85,West,261,1.0,3.0,71,0.00,,,0.09,Wunderground v.1.15,2013-07-11 21:56:00,
2013-07-11 18:01:00,82.7,72.7,29.84,West,276,2.0,3.0,72,0.00,,,0.09,Wunderground v.1.15,2013-07-11 22:01:00,
2013-07-11 18:06:00,82.9,72.1,29.84,West,278,2.0,3.0,70,0.00,,,0.09,Wunderground v.1.15,2013-07-11 22:06:00,
2013-07-11 18:12:00,83.2,72.8,29.84,West,278,2.0,3.0,71,0.00,,,0.09,Wunderground v.1.15,2013-07-11 22:12:00,
2013-07-11 18:17:00,83.4,72.6,29.84,West,266,3.0,4.0,70,0.00,,,0.09,Wunderground v.1.15,2013-07-11 22:17:00,
2013-07-11 18:22:00,83.5,72.7,29.84,WSW,239,1.0,4.0,70,0.00,,,0.09,Wunderground v.1.15,2013-07-11 22:22:00,
2013-07-11 18:27:00,83.7,72.4,29.84,West,269,2.0,3.0,69,0.00,,,0.09,Wunderground v.1.15,2013-07-11 22:27:00,
2013-07-11 18:32:00,83.7,72.0,29.83,WNW,283,2.0,4.0,68,0.00,,,0.09,Wunderground v.1.15,2013-07-11 22:32:00,
2013-07-11 18:37:00,83.7,72.4,29.84,WNW,283,2.0,3.0,69,0.00,,,0.09,Wunderground v.1.15,2013-07-11 22:37:00,
2013-07-11 18:42:00,83.8,72.1,29.83,West,271,1.0,3.0,68,0.00,,,0.09,Wunderground v.1.15,2013-07-11 22:42:00,
2013-07-11 18:47:00,84.0,72.7,29.83,West,259,2.0,2.0,69,0.00,,,0.09,Wunderground v.1.15,2013-07-11 22:47:00,
2013-07-11 18:53:00,83.9,73.5,29.84,WSW,255,2.0,4.0,71,0.00,,,0.09,Wunderground v.1.15,2013-07-11 22:53:00,
2013-07-11 18:58:00,83.4,72.6,29.84,WSW,250,1.0,2.0,70,0.00,,,0.09,Wunderground v.1.15,2013-07-11 22:58:00,
2013-07-11 19:03:00,83.0,73.0,29.83,West,271,2.0,3.0,72,0.00,,,0.09,Wunderground v.1.15,2013-07-11 23:03:00,
2013-07-11 19:08:00,82.9,73.4,29.84,SW,217,0.0,1.0,73,0.00,,,0.09,Wunderground v.1.15,2013-07-11 23:08:00,
2013-07-11 19:13:00,82.5,73.0,29.84,WNW,290,1.0,2.0,73,0.00,,,0.09,Wunderground v.1.15,2013-07-11 23:13:00,
2013-07-11 19:19:00,82.3,73.2,29.84,WNW,293,1.0,2.0,74,0.00,,,0.09,Wunderground v.1.15,2013-07-11 23:19:00,
2013-07-11 19:24:00,82.1,73.4,29.84,NW,311,2.0,3.0,75,0.00,,,0.09,Wunderground v.1.15,2013-07-11 23:24:00,
2013-07-11 19:30:00,81.8,73.5,29.84,NW,314,3.0,3.0,76,0.00,,,0.09,Wunderground v.1.15,2013-07-11 23:30:00,
2013-07-11 19:35:00,81.6,73.3,29.83,NW,316,3.0,5.0,76,0.00,,,0.09,Wunderground v.1.15,2013-07-11 23:35:00,
2013-07-11 19:40:00,81.5,74.0,29.83,North,7,5.0,5.0,78,0.00,,,0.09,Wunderground v.1.15,2013-07-11 23:40:00,
2013-07-11 19:45:00,81.3,74.5,29.83,NNE,12,3.0,6.0,80,0.00,,,0.09,Wunderground v.1.15,2013-07-11 23:45:00,
2013-07-11 19:50:00,81.1,74.7,29.83,North,11,2.0,4.0,81,0.00,,,0.09,Wunderground v.1.15,2013-07-11 23:50:00,
2013-07-11 19:55:00,81.3,75.3,29.83,NNW,331,3.0,4.0,82,0.00,,,0.09,Wunderground v.1.15,2013-07-11 23:55:00,
2013-07-11 20:00:00,81.2,75.2,29.83,NNW,340,1.0,3.0,82,0.00,,,0.09,Wunderground v.1.15,2013-07-12 00:00:00,
2013-07-11 20:05:00,80.8,74.4,29.83,NNW,328,1.0,3.0,81,0.00,,,0.09,Wunderground v.1.15,2013-07-12 00:05:00,
2013-07-11 20:10:00,80.7,74.7,29.83,North,1,2.0,3.0,82,0.00,,,0.09,Wunderground v.1.15,2013-07-12 00:10:00,
2013-07-11 20:15:00,80.5,74.9,29.83,North,1,2.0,4.0,83,0.00,,,0.09,Wunderground v.1.15,2013-07-12 00:15:00,
2013-07-11 20:20:00,80.2,74.2,29.83,NNW,333,2.0,3.0,82,0.00,,,0.09,Wunderground v.1.15,2013-07-12 00:20:00,
2013-07-11 20:25:00,80.2,74.6,29.83,NW,321,2.0,3.0,83,0.00,,,0.09,Wunderground v.1.15,2013-07-12 00:25:00,
2013-07-11 20:31:00,79.9,74.6,29.83,North,349,1.0,3.0,84,0.00,,,0.09,Wunderground v.1.15,2013-07-12 00:31:00,
2013-07-11 20:36:00,79.7,74.8,29.83,North,357,1.0,3.0,85,0.00,,,0.09,Wunderground v.1.15,2013-07-12 00:36:00,
2013-07-11 20:41:00,79.5,74.9,29.83,North,4,2.0,3.0,86,0.00,,,0.09,Wunderground v.1.15,2013-07-12 00:41:00,
2013-07-11 20:46:00,79.4,75.2,29.83,NNE,20,1.0,2.0,87,0.00,,,0.09,Wunderground v.1.15,2013-07-12 00:46:00,
2013-07-11 20:51:00,79.1,75.2,29.84,North,7,2.0,3.0,88,0.00,,,0.09,Wunderground v.1.15,2013-07-12 00:51:00,
2013-07-11 20:56:00,78.7,74.8,29.84,North,6,2.0,2.0,88,0.00,,,0.09,Wunderground v.1.15,2013-07-12 00:56:00,
2013-07-11 21:01:00,78.4,75.2,29.84,NNE,12,3.0,3.0,90,0.00,,,0.09,Wunderground v.1.15,2013-07-12 01:01:00,
2013-07-11 21:07:00,78.1,74.9,29.84,North,6,1.0,2.0,90,0.00,,,0.09,Wunderground v.1.15,2013-07-12 01:07:00,
2013-07-11 21:12:00,78.0,75.2,29.84,NNE,14,2.0,3.0,91,0.00,,,0.09,Wunderground v.1.15,2013-07-12 01:12:00,
2013-07-11 21:17:00,78.0,75.2,29.84,North,8,0.0,1.0,91,0.00,,,0.09,Wunderground v.1.15,2013-07-12 01:17:00,
2013-07-11 21:22:00,77.9,74.7,29.84,North,352,2.0,3.0,90,0.00,,,0.09,Wunderground v.1.15,2013-07-12 01:22:00,
2013-07-11 21:27:00,77.6,75.1,29.84,NNW,336,1.0,1.0,92,0.00,,,0.09,Wunderground v.1.15,2013-07-12 01:27:00,
2013-07-11 21:32:00,77.5,75.0,29.84,NNW,333,2.0,3.0,92,0.00,,,0.09,Wunderground v.1.15,2013-07-12 01:32:00,
2013-07-11 21:37:00,77.4,74.9,29.84,North,349,1.0,2.0,92,0.00,,,0.09,Wunderground v.1.15,2013-07-12 01:37:00,
2013-07-11 21:42:00,77.3,74.5,29.84,North,11,0.0,3.0,91,0.00,,,0.09,Wunderground v.1.15,2013-07-12 01:42:00,
2013-07-11 21:48:00,77.4,75.2,29.84,NNE,19,0.0,1.0,93,0.00,,,0.09,Wunderground v.1.15,2013-07-12 01:48:00,
2013-07-11 21:52:00,77.2,74.7,29.85,North,1,2.0,3.0,92,0.00,,,0.09,Wunderground v.1.15,2013-07-12 01:52:00,
2013-07-11 21:58:00,77.1,74.6,29.85,North,11,0.0,1.0,92,0.00,,,0.09,Wunderground v.1.15,2013-07-12 01:58:00,
2013-07-11 22:03:00,77.0,74.5,29.85,NE,41,0.0,1.0,92,0.00,,,0.09,Wunderground v.1.15,2013-07-12 02:03:00,
2013-07-11 22:08:00,76.9,74.1,29.85,North,4,1.0,1.0,91,0.00,,,0.09,Wunderground v.1.15,2013-07-12 02:08:00,
2013-07-11 22:13:00,76.8,74.0,29.85,NE,45,0.0,1.0,91,0.00,,,0.09,Wunderground v.1.15,2013-07-12 02:13:00,
2013-07-11 22:18:00,76.8,74.0,29.86,North,8,0.0,1.0,91,0.00,,,0.09,Wunderground v.1.15,2013-07-12 02:18:00,
2013-07-11 22:23:00,76.7,73.5,29.86,North,10,2.0,2.0,90,0.00,,,0.09,Wunderground v.1.15,2013-07-12 02:23:00,
2013-07-11 22:29:00,76.6,74.1,29.86,North,8,1.0,2.0,92,0.00,,,0.09,Wunderground v.1.15,2013-07-12 02:29:00,
2013-07-11 22:34:00,76.4,73.9,29.86,North,358,1.0,2.0,92,0.00,,,0.09,Wunderground v.1.15,2013-07-12 02:34:00,
2013-07-11 22:39:00,76.3,73.8,29.86,North,8,0.0,3.0,92,0.00,,,0.09,Wunderground v.1.15,2013-07-12 02:39:00,
2013-07-11 22:45:00,76.2,73.7,29.86,NNW,346,2.0,3.0,92,0.00,,,0.09,Wunderground v.1.15,2013-07-12 02:45:00,
2013-07-11 22:50:00,76.1,74.2,29.86,WNW,298,1.0,2.0,94,0.00,,,0.09,Wunderground v.1.15,2013-07-12 02:50:00,
2013-07-11 22:55:00,75.8,74.3,29.86,NW,311,0.0,2.0,95,0.00,,,0.09,Wunderground v.1.15,2013-07-12 02:55:00,
2013-07-11 23:00:00,75.6,73.8,29.86,North,2,1.0,1.0,94,0.00,,,0.09,Wunderground v.1.15,2013-07-12 03:00:00,
2013-07-11 23:05:00,75.8,73.6,29.86,North,359,1.0,2.0,93,0.00,,,0.09,Wunderground v.1.15,2013-07-12 03:05:00,
2013-07-11 23:10:00,75.9,74.0,29.86,WNW,302,0.0,2.0,94,0.00,,,0.09,Wunderground v.1.15,2013-07-12 03:10:00,
2013-07-11 23:15:00,75.8,74.3,29.86,NNW,342,0.0,2.0,95,0.00,,,0.09,Wunderground v.1.15,2013-07-12 03:15:00,
2013-07-11 23:20:00,75.7,74.2,29.87,NE,35,0.0,0.0,95,0.00,,,0.09,Wunderground v.1.15,2013-07-12 03:20:00,
2013-07-11 23:25:00,75.6,74.4,29.86,NNE,17,0.0,2.0,96,0.00,,,0.09,Wunderground v.1.15,2013-07-12 03:25:00,
2013-07-11 23:30:00,75.3,73.8,29.86,NNW,344,2.0,3.0,95,0.00,,,0.09,Wunderground v.1.15,2013-07-12 03:30:00,
2013-07-11 23:35:00,75.3,74.1,29.86,North,353,2.0,3.0,96,0.00,,,0.09,Wunderground v.1.15,2013-07-12 03:35:00,
2013-07-11 23:41:00,74.8,73.0,29.86,NNW,344,2.0,3.0,94,0.00,,,0.09,Wunderground v.1.15,2013-07-12 03:41:00,
2013-07-11 23:46:00,74.9,72.7,29.86,NNW,342,2.0,2.0,93,0.00,,,0.09,Wunderground v.1.15,2013-07-12 03:46:00,
2013-07-11 23:51:00,75.0,73.2,29.86,NNW,344,3.0,3.0,94,0.00,,,0.09,Wunderground v.1.15,2013-07-12 03:51:00,
2013-07-11 23:57:00,75.0,72.5,29.87,NW,325,3.0,4.0,92,0.00,,,0.09,Wunderground v.1.15,2013-07-12 03:57:00,